Cross Roads, Indiana
Current Conditions -  °F | °C
As of 11:55 PM on Sunday 21 Dec 2014 (Local Time) from KI67 Reporting Station
Clear Clear  
Wind Chill: 25°   Ceiling: Unl
Heat Index: 25°   Visibility: 7mi
Dew Point: 23°   Wind: 3mph
Humidity: 93%   Direction: 10°N
Pressure: 30.12"   Gusts: NA
Location:  39.3079°N, 85.2177°W
Report Text: KI67 220455Z AUTO 01003KT 7SM CLR M04/M05 A3012 RMK AO1
Loading
Personal Weather Stations






























Interactive Weather Map New forecast layout! Learn more

10-Day Weather Forecast

Advertisements
Track Severe Weather on mobile